sensor_id;sensor_type;location;lat;lon;timestamp;temperature;humidity
20091;DHT22;10205;49.678;6.560;2023-04-23T00:00:20;18.00;60.30
20091;DHT22;10205;49.678;6.560;2023-04-23T00:02:51;18.00;60.30
20091;DHT22;10205;49.678;6.560;2023-04-23T00:05:19;18.00;60.40
20091;DHT22;10205;49.678;6.560;2023-04-23T00:07:47;17.90;60.10
20091;DHT22;10205;49.678;6.560;2023-04-23T00:10:15;17.90;60.20
20091;DHT22;10205;49.678;6.560;2023-04-23T00:12:45;17.90;60.30
20091;DHT22;10205;49.678;6.560;2023-04-23T00:15:13;17.90;60.30
20091;DHT22;10205;49.678;6.560;2023-04-23T00:17:41;17.90;60.50
20091;DHT22;10205;49.678;6.560;2023-04-23T00:20:09;17.90;60.30
20091;DHT22;10205;49.678;6.560;2023-04-23T00:22:36;17.90;61.40
20091;DHT22;10205;49.678;6.560;2023-04-23T00:25:04;17.80;60.30
20091;DHT22;10205;49.678;6.560;2023-04-23T00:27:31;17.80;60.90
20091;DHT22;10205;49.678;6.560;2023-04-23T00:30:00;17.80;60.70
20091;DHT22;10205;49.678;6.560;2023-04-23T00:32:28;17.80;60.80
20091;DHT22;10205;49.678;6.560;2023-04-23T00:34:55;17.80;60.60
20091;DHT22;10205;49.678;6.560;2023-04-23T00:37:22;17.80;61.40
20091;DHT22;10205;49.678;6.560;2023-04-23T00:39:49;17.80;60.90
20091;DHT22;10205;49.678;6.560;2023-04-23T00:42:17;17.80;60.80
20091;DHT22;10205;49.678;6.560;2023-04-23T00:44:44;17.80;60.90
20091;DHT22;10205;49.678;6.560;2023-04-23T00:47:14;17.70;60.80
20091;DHT22;10205;49.678;6.560;2023-04-23T00:49:42;17.70;61.20
20091;DHT22;10205;49.678;6.560;2023-04-23T00:52:10;17.70;60.90
20091;DHT22;10205;49.678;6.560;2023-04-23T00:54:37;17.70;61.00
20091;DHT22;10205;49.678;6.560;2023-04-23T00:57:04;17.70;61.00
20091;DHT22;10205;49.678;6.560;2023-04-23T00:59:32;17.70;61.30
20091;DHT22;10205;49.678;6.560;2023-04-23T01:02:01;17.60;61.30
20091;DHT22;10205;49.678;6.560;2023-04-23T01:04:30;17.60;61.30
20091;DHT22;10205;49.678;6.560;2023-04-23T01:06:59;17.60;61.40
20091;DHT22;10205;49.678;6.560;2023-04-23T01:09:27;17.50;61.40
20091;DHT22;10205;49.678;6.560;2023-04-23T01:11:56;17.60;61.30
20091;DHT22;10205;49.678;6.560;2023-04-23T01:14:24;17.50;61.40
20091;DHT22;10205;49.678;6.560;2023-04-23T01:16:51;17.50;61.30
20091;DHT22;10205;49.678;6.560;2023-04-23T01:19:19;17.50;61.70
20091;DHT22;10205;49.678;6.560;2023-04-23T01:21:49;17.50;61.60
20091;DHT22;10205;49.678;6.560;2023-04-23T01:24:19;17.40;61.80
20091;DHT22;10205;49.678;6.560;2023-04-23T01:26:46;17.40;61.80
20091;DHT22;10205;49.678;6.560;2023-04-23T01:29:13;17.40;61.50
20091;DHT22;10205;49.678;6.560;2023-04-23T01:31:42;17.40;61.70
20091;DHT22;10205;49.678;6.560;2023-04-23T01:34:10;17.40;61.70
20091;DHT22;10205;49.678;6.560;2023-04-23T01:36:37;17.40;61.70
20091;DHT22;10205;49.678;6.560;2023-04-23T01:39:06;17.40;62.40
20091;DHT22;10205;49.678;6.560;2023-04-23T01:41:35;17.30;61.70
20091;DHT22;10205;49.678;6.560;2023-04-23T01:44:03;17.30;61.70
20091;DHT22;10205;49.678;6.560;2023-04-23T01:46:31;17.30;62.10
20091;DHT22;10205;49.678;6.560;2023-04-23T01:49:01;17.30;62.70
20091;DHT22;10205;49.678;6.560;2023-04-23T01:51:29;17.30;61.80
20091;DHT22;10205;49.678;6.560;2023-04-23T01:53:56;17.30;61.90
20091;DHT22;10205;49.678;6.560;2023-04-23T01:56:25;17.30;61.70
20091;DHT22;10205;49.678;6.560;2023-04-23T01:58:56;17.20;62.80
20091;DHT22;10205;49.678;6.560;2023-04-23T02:01:23;17.20;61.80
20091;DHT22;10205;49.678;6.560;2023-04-23T02:03:50;17.20;61.70
20091;DHT22;10205;49.678;6.560;2023-04-23T02:06:18;17.20;61.70
20091;DHT22;10205;49.678;6.560;2023-04-23T02:08:45;17.20;61.80
20091;DHT22;10205;49.678;6.560;2023-04-23T02:11:12;17.20;61.80
20091;DHT22;10205;49.678;6.560;2023-04-23T02:13:39;17.20;61.70
20091;DHT22;10205;49.678;6.560;2023-04-23T02:16:08;17.20;61.60
20091;DHT22;10205;49.678;6.560;2023-04-23T02:18:35;17.10;61.60
20091;DHT22;10205;49.678;6.560;2023-04-23T02:21:05;17.20;61.50
20091;DHT22;10205;49.678;6.560;2023-04-23T02:23:33;17.10;61.60
20091;DHT22;10205;49.678;6.560;2023-04-23T02:26:00;17.10;61.80
20091;DHT22;10205;49.678;6.560;2023-04-23T02:28:27;17.10;61.80
20091;DHT22;10205;49.678;6.560;2023-04-23T02:30:55;17.10;61.80
20091;DHT22;10205;49.678;6.560;2023-04-23T02:33:24;17.10;61.70
20091;DHT22;10205;49.678;6.560;2023-04-23T02:35:51;17.10;61.70
20091;DHT22;10205;49.678;6.560;2023-04-23T02:38:18;17.10;61.60
20091;DHT22;10205;49.678;6.560;2023-04-23T02:40:45;17.10;61.60
20091;DHT22;10205;49.678;6.560;2023-04-23T02:43:22;17.00;61.60
20091;DHT22;10205;49.678;6.560;2023-04-23T02:45:49;17.00;61.80
20091;DHT22;10205;49.678;6.560;2023-04-23T02:48:16;17.00;61.70
20091;DHT22;10205;49.678;6.560;2023-04-23T02:50:45;17.00;62.00
20091;DHT22;10205;49.678;6.560;2023-04-23T02:53:12;17.00;61.80
20091;DHT22;10205;49.678;6.560;2023-04-23T02:55:39;17.00;61.70
20091;DHT22;10205;49.678;6.560;2023-04-23T02:58:06;17.00;62.40
20091;DHT22;10205;49.678;6.560;2023-04-23T03:00:33;16.90;61.90
20091;DHT22;10205;49.678;6.560;2023-04-23T03:03:00;16.90;62.30
20091;DHT22;10205;49.678;6.560;2023-04-23T03:05:28;16.90;63.00
20091;DHT22;10205;49.678;6.560;2023-04-23T03:07:57;16.90;62.40
20091;DHT22;10205;49.678;6.560;2023-04-23T03:10:24;16.90;63.30
20091;DHT22;10205;49.678;6.560;2023-04-23T03:12:51;16.90;62.20
20091;DHT22;10205;49.678;6.560;2023-04-23T03:15:18;16.90;62.60
20091;DHT22;10205;49.678;6.560;2023-04-23T03:17:45;16.80;62.80
20091;DHT22;10205;49.678;6.560;2023-04-23T03:20:13;16.80;62.90
20091;DHT22;10205;49.678;6.560;2023-04-23T03:22:43;16.80;62.60
20091;DHT22;10205;49.678;6.560;2023-04-23T03:25:11;16.80;63.00
20091;DHT22;10205;49.678;6.560;2023-04-23T03:27:39;16.80;63.30
20091;DHT22;10205;49.678;6.560;2023-04-23T03:30:08;16.70;63.00
20091;DHT22;10205;49.678;6.560;2023-04-23T03:32:37;16.70;63.00
20091;DHT22;10205;49.678;6.560;2023-04-23T03:35:05;16.70;63.20
20091;DHT22;10205;49.678;6.560;2023-04-23T03:37:34;16.70;63.00
20091;DHT22;10205;49.678;6.560;2023-04-23T03:40:01;16.60;63.00
20091;DHT22;10205;49.678;6.560;2023-04-23T03:42:33;16.60;63.40
20091;DHT22;10205;49.678;6.560;2023-04-23T03:45:00;16.60;63.80
20091;DHT22;10205;49.678;6.560;2023-04-23T03:47:27;16.60;64.10
20091;DHT22;10205;49.678;6.560;2023-04-23T03:49:56;16.60;63.40
20091;DHT22;10205;49.678;6.560;2023-04-23T03:52:23;16.60;64.20
20091;DHT22;10205;49.678;6.560;2023-04-23T03:54:50;16.60;63.30
20091;DHT22;10205;49.678;6.560;2023-04-23T03:57:17;16.60;63.40
20091;DHT22;10205;49.678;6.560;2023-04-23T03:59:46;16.60;63.80
20091;DHT22;10205;49.678;6.560;2023-04-23T04:02:13;16.50;63.60
20091;DHT22;10205;49.678;6.560;2023-04-23T04:04:40;16.50;63.60
20091;DHT22;10205;49.678;6.560;2023-04-23T04:07:10;16.50;63.80
20091;DHT22;10205;49.678;6.560;2023-04-23T04:09:38;16.50;63.60
20091;DHT22;10205;49.678;6.560;2023-04-23T04:12:05;16.50;63.80
20091;DHT22;10205;49.678;6.560;2023-04-23T04:14:32;16.50;63.80
20091;DHT22;10205;49.678;6.560;2023-04-23T04:17:01;16.50;63.90
20091;DHT22;10205;49.678;6.560;2023-04-23T04:19:28;16.50;63.70
20091;DHT22;10205;49.678;6.560;2023-04-23T04:21:55;16.40;63.70
20091;DHT22;10205;49.678;6.560;2023-04-23T04:24:22;16.50;64.10
20091;DHT22;10205;49.678;6.560;2023-04-23T04:26:50;16.40;64.60
20091;DHT22;10205;49.678;6.560;2023-04-23T04:29:18;16.40;63.80
20091;DHT22;10205;49.678;6.560;2023-04-23T04:31:46;16.40;64.20
20091;DHT22;10205;49.678;6.560;2023-04-23T04:34:14;16.40;64.00
20091;DHT22;10205;49.678;6.560;2023-04-23T04:36:42;16.40;63.90
20091;DHT22;10205;49.678;6.560;2023-04-23T04:39:10;16.40;64.00
20091;DHT22;10205;49.678;6.560;2023-04-23T04:41:38;16.40;64.10
20091;DHT22;10205;49.678;6.560;2023-04-23T04:44:07;16.40;64.20
20091;DHT22;10205;49.678;6.560;2023-04-23T04:46:34;16.40;63.90
20091;DHT22;10205;49.678;6.560;2023-04-23T04:49:06;16.40;63.90
20091;DHT22;10205;49.678;6.560;2023-04-23T04:51:35;16.40;64.00
20091;DHT22;10205;49.678;6.560;2023-04-23T04:54:03;16.40;64.00
20091;DHT22;10205;49.678;6.560;2023-04-23T04:56:32;16.40;63.80
20091;DHT22;10205;49.678;6.560;2023-04-23T04:58:59;16.40;64.20
20091;DHT22;10205;49.678;6.560;2023-04-23T05:01:27;16.40;63.90
20091;DHT22;10205;49.678;6.560;2023-04-23T05:03:55;16.40;63.90
20091;DHT22;10205;49.678;6.560;2023-04-23T05:06:23;16.40;63.70
20091;DHT22;10205;49.678;6.560;2023-04-23T05:08:52;16.40;63.60
20091;DHT22;10205;49.678;6.560;2023-04-23T05:11:19;16.40;64.80
20091;DHT22;10205;49.678;6.560;2023-04-23T05:13:47;16.40;64.00
20091;DHT22;10205;49.678;6.560;2023-04-23T05:16:14;16.40;64.10
20091;DHT22;10205;49.678;6.560;2023-04-23T05:18:41;16.40;64.50
20091;DHT22;10205;49.678;6.560;2023-04-23T05:21:08;16.40;64.10
20091;DHT22;10205;49.678;6.560;2023-04-23T05:23:36;16.40;64.10
20091;DHT22;10205;49.678;6.560;2023-04-23T05:26:05;16.40;63.80
20091;DHT22;10205;49.678;6.560;2023-04-23T05:28:32;16.40;63.90
20091;DHT22;10205;49.678;6.560;2023-04-23T05:30:59;16.40;64.30
20091;DHT22;10205;49.678;6.560;2023-04-23T05:33:26;16.40;64.20
20091;DHT22;10205;49.678;6.560;2023-04-23T05:35:54;16.40;64.10
20091;DHT22;10205;49.678;6.560;2023-04-23T05:38:21;16.40;64.30
20091;DHT22;10205;49.678;6.560;2023-04-23T05:40:48;16.40;64.00
20091;DHT22;10205;49.678;6.560;2023-04-23T05:43:17;16.40;64.00
20091;DHT22;10205;49.678;6.560;2023-04-23T05:45:44;16.40;63.80
20091;DHT22;10205;49.678;6.560;2023-04-23T05:48:11;16.40;63.80
20091;DHT22;10205;49.678;6.560;2023-04-23T05:50:38;16.40;63.80
20091;DHT22;10205;49.678;6.560;2023-04-23T05:53:06;16.40;63.80
20091;DHT22;10205;49.678;6.560;2023-04-23T05:55:33;16.40;64.00
20091;DHT22;10205;49.678;6.560;2023-04-23T05:58:00;16.40;63.80
20091;DHT22;10205;49.678;6.560;2023-04-23T06:00:29;16.40;63.70
20091;DHT22;10205;49.678;6.560;2023-04-23T06:02:57;16.40;63.80
20091;DHT22;10205;49.678;6.560;2023-04-23T06:05:24;16.40;63.80
20091;DHT22;10205;49.678;6.560;2023-04-23T06:07:51;16.40;64.00
20091;DHT22;10205;49.678;6.560;2023-04-23T06:10:19;16.40;64.10
20091;DHT22;10205;49.678;6.560;2023-04-23T06:12:46;16.40;64.00
20091;DHT22;10205;49.678;6.560;2023-04-23T06:15:13;16.40;64.00
20091;DHT22;10205;49.678;6.560;2023-04-23T06:17:42;16.40;64.80
20091;DHT22;10205;49.678;6.560;2023-04-23T06:20:09;16.40;64.50
20091;DHT22;10205;49.678;6.560;2023-04-23T06:22:39;16.40;64.20
20091;DHT22;10205;49.678;6.560;2023-04-23T06:25:06;16.40;65.10
20091;DHT22;10205;49.678;6.560;2023-04-23T06:27:34;16.40;64.60
20091;DHT22;10205;49.678;6.560;2023-04-23T06:30:02;16.40;64.50
20091;DHT22;10205;49.678;6.560;2023-04-23T06:32:29;16.40;65.10
20091;DHT22;10205;49.678;6.560;2023-04-23T06:34:57;16.40;64.40
20091;DHT22;10205;49.678;6.560;2023-04-23T06:37:25;16.40;64.70
20091;DHT22;10205;49.678;6.560;2023-04-23T06:39:55;16.40;64.60
20091;DHT22;10205;49.678;6.560;2023-04-23T06:42:24;16.40;64.60
20091;DHT22;10205;49.678;6.560;2023-04-23T06:44:51;16.40;64.80
20091;DHT22;10205;49.678;6.560;2023-04-23T06:47:18;16.40;64.50
20091;DHT22;10205;49.678;6.560;2023-04-23T06:49:45;16.40;64.50
20091;DHT22;10205;49.678;6.560;2023-04-23T06:52:14;16.40;64.80
20091;DHT22;10205;49.678;6.560;2023-04-23T06:54:41;16.40;64.80
20091;DHT22;10205;49.678;6.560;2023-04-23T06:57:09;16.40;65.00
20091;DHT22;10205;49.678;6.560;2023-04-23T06:59:36;16.40;65.00
20091;DHT22;10205;49.678;6.560;2023-04-23T07:02:03;16.40;64.90
20091;DHT22;10205;49.678;6.560;2023-04-23T07:04:30;16.40;64.90
20091;DHT22;10205;49.678;6.560;2023-04-23T07:06:58;16.40;64.90
20091;DHT22;10205;49.678;6.560;2023-04-23T07:09:27;16.40;65.10
20091;DHT22;10205;49.678;6.560;2023-04-23T07:11:55;16.40;65.10
20091;DHT22;10205;49.678;6.560;2023-04-23T07:14:22;16.40;64.90
20091;DHT22;10205;49.678;6.560;2023-04-23T07:16:50;16.40;65.10
20091;DHT22;10205;49.678;6.560;2023-04-23T07:19:19;16.40;65.80
20091;DHT22;10205;49.678;6.560;2023-04-23T07:21:46;16.40;65.50
20091;DHT22;10205;49.678;6.560;2023-04-23T07:24:13;16.50;65.70
20091;DHT22;10205;49.678;6.560;2023-04-23T07:26:43;16.50;65.40
20091;DHT22;10205;49.678;6.560;2023-04-23T07:29:11;16.50;65.40
20091;DHT22;10205;49.678;6.560;2023-04-23T07:31:39;16.50;65.50
20091;DHT22;10205;49.678;6.560;2023-04-23T07:34:07;16.50;65.70
20091;DHT22;10205;49.678;6.560;2023-04-23T07:36:34;16.50;65.80
20091;DHT22;10205;49.678;6.560;2023-04-23T07:39:02;16.50;65.80
20091;DHT22;10205;49.678;6.560;2023-04-23T07:41:30;16.60;65.60
20091;DHT22;10205;49.678;6.560;2023-04-23T07:43:58;16.60;65.30
20091;DHT22;10205;49.678;6.560;2023-04-23T07:46:26;16.60;65.30
20091;DHT22;10205;49.678;6.560;2023-04-23T07:48:53;16.60;65.40
20091;DHT22;10205;49.678;6.560;2023-04-23T07:51:20;16.60;65.30
20091;DHT22;10205;49.678;6.560;2023-04-23T07:53:51;16.60;65.50
20091;DHT22;10205;49.678;6.560;2023-04-23T07:56:19;16.60;66.10
20091;DHT22;10205;49.678;6.560;2023-04-23T07:58:47;16.70;65.30
20091;DHT22;10205;49.678;6.560;2023-04-23T08:01:16;16.70;65.10
20091;DHT22;10205;49.678;6.560;2023-04-23T08:03:43;16.70;65.10
20091;DHT22;10205;49.678;6.560;2023-04-23T08:06:12;16.70;65.10
20091;DHT22;10205;49.678;6.560;2023-04-23T08:08:39;16.80;65.00
20091;DHT22;10205;49.678;6.560;2023-04-23T08:11:07;16.80;64.80
20091;DHT22;10205;49.678;6.560;2023-04-23T08:13:34;16.80;65.00
20091;DHT22;10205;49.678;6.560;2023-04-23T08:16:01;16.80;65.20
20091;DHT22;10205;49.678;6.560;2023-04-23T08:18:31;16.90;65.50
20091;DHT22;10205;49.678;6.560;2023-04-23T08:21:00;16.90;65.20
20091;DHT22;10205;49.678;6.560;2023-04-23T08:23:28;16.90;65.20
20091;DHT22;10205;49.678;6.560;2023-04-23T08:25:55;16.90;65.00
20091;DHT22;10205;49.678;6.560;2023-04-23T08:28:22;17.00;64.90
20091;DHT22;10205;49.678;6.560;2023-04-23T08:30:50;17.00;65.00
20091;DHT22;10205;49.678;6.560;2023-04-23T08:33:17;17.00;65.10
20091;DHT22;10205;49.678;6.560;2023-04-23T08:35:46;17.10;65.00
20091;DHT22;10205;49.678;6.560;2023-04-23T08:38:13;17.00;65.10
20091;DHT22;10205;49.678;6.560;2023-04-23T08:40:41;17.10;65.20
20091;DHT22;10205;49.678;6.560;2023-04-23T08:43:15;17.10;65.00
20091;DHT22;10205;49.678;6.560;2023-04-23T08:45:46;17.10;65.00
20091;DHT22;10205;49.678;6.560;2023-04-23T08:48:14;17.10;64.70
20091;DHT22;10205;49.678;6.560;2023-04-23T08:50:43;17.20;64.80
20091;DHT22;10205;49.678;6.560;2023-04-23T08:53:17;17.20;64.70
20091;DHT22;10205;49.678;6.560;2023-04-23T08:55:46;17.20;64.80
20091;DHT22;10205;49.678;6.560;2023-04-23T08:58:16;17.30;64.70
20091;DHT22;10205;49.678;6.560;2023-04-23T09:00:44;17.30;64.70
20091;DHT22;10205;49.678;6.560;2023-04-23T09:03:12;17.30;64.40
20091;DHT22;10205;49.678;6.560;2023-04-23T09:05:45;17.40;64.50
20091;DHT22;10205;49.678;6.560;2023-04-23T09:08:16;17.40;64.50
20091;DHT22;10205;49.678;6.560;2023-04-23T09:10:47;17.40;64.20
20091;DHT22;10205;49.678;6.560;2023-04-23T09:13:15;17.40;64.00
20091;DHT22;10205;49.678;6.560;2023-04-23T09:15:42;17.50;64.10
20091;DHT22;10205;49.678;6.560;2023-04-23T09:18:10;17.50;64.20
20091;DHT22;10205;49.678;6.560;2023-04-23T09:20:37;17.50;64.00
20091;DHT22;10205;49.678;6.560;2023-04-23T09:23:07;17.50;64.10
20091;DHT22;10205;49.678;6.560;2023-04-23T09:25:34;17.50;64.10
20091;DHT22;10205;49.678;6.560;2023-04-23T09:28:06;17.60;64.10
20091;DHT22;10205;49.678;6.560;2023-04-23T09:30:38;17.60;64.90
20091;DHT22;10205;49.678;6.560;2023-04-23T09:33:07;17.60;64.10
20091;DHT22;10205;49.678;6.560;2023-04-23T09:35:36;17.70;64.10
20091;DHT22;10205;49.678;6.560;2023-04-23T09:38:08;17.70;64.10
20091;DHT22;10205;49.678;6.560;2023-04-23T09:40:35;17.70;63.80
20091;DHT22;10205;49.678;6.560;2023-04-23T09:43:05;17.80;63.70
20091;DHT22;10205;49.678;6.560;2023-04-23T09:45:36;17.80;63.60
20091;DHT22;10205;49.678;6.560;2023-04-23T09:48:06;17.80;63.40
20091;DHT22;10205;49.678;6.560;2023-04-23T09:50:34;17.90;63.50
20091;DHT22;10205;49.678;6.560;2023-04-23T09:53:03;17.90;63.40
20091;DHT22;10205;49.678;6.560;2023-04-23T09:55:34;17.90;63.20
20091;DHT22;10205;49.678;6.560;2023-04-23T09:58:03;17.90;63.20
20091;DHT22;10205;49.678;6.560;2023-04-23T10:00:42;18.00;63.40
20091;DHT22;10205;49.678;6.560;2023-04-23T10:03:10;18.00;63.30
20091;DHT22;10205;49.678;6.560;2023-04-23T10:05:37;18.10;63.30
20091;DHT22;10205;49.678;6.560;2023-04-23T10:08:06;18.10;63.40
20091;DHT22;10205;49.678;6.560;2023-04-23T10:10:34;18.10;63.20
20091;DHT22;10205;49.678;6.560;2023-04-23T10:13:05;18.20;63.20
20091;DHT22;10205;49.678;6.560;2023-04-23T10:15:33;18.30;63.10
20091;DHT22;10205;49.678;6.560;2023-04-23T10:18:02;18.30;63.10
20091;DHT22;10205;49.678;6.560;2023-04-23T10:20:32;18.30;63.00
20091;DHT22;10205;49.678;6.560;2023-04-23T10:23:00;18.30;62.90
20091;DHT22;10205;49.678;6.560;2023-04-23T10:25:28;18.40;62.90
20091;DHT22;10205;49.678;6.560;2023-04-23T10:27:57;18.40;62.50
20091;DHT22;10205;49.678;6.560;2023-04-23T10:30:30;18.50;62.40
20091;DHT22;10205;49.678;6.560;2023-04-23T10:32:59;18.50;61.90
20091;DHT22;10205;49.678;6.560;2023-04-23T10:35:28;18.60;62.00
20091;DHT22;10205;49.678;6.560;2023-04-23T10:37:55;18.60;61.90
20091;DHT22;10205;49.678;6.560;2023-04-23T10:40:28;18.70;62.00
20091;DHT22;10205;49.678;6.560;2023-04-23T10:42:59;18.70;61.90
20091;DHT22;10205;49.678;6.560;2023-04-23T10:45:29;18.80;61.60
20091;DHT22;10205;49.678;6.560;2023-04-23T10:47:57;18.80;61.00
20091;DHT22;10205;49.678;6.560;2023-04-23T10:50:26;18.90;61.30
20091;DHT22;10205;49.678;6.560;2023-04-23T10:52:55;18.90;61.10
20091;DHT22;10205;49.678;6.560;2023-04-23T10:55:25;19.00;61.00
20091;DHT22;10205;49.678;6.560;2023-04-23T10:57:59;19.00;60.90
20091;DHT22;10205;49.678;6.560;2023-04-23T11:00:30;19.10;60.90
20091;DHT22;10205;49.678;6.560;2023-04-23T11:03:29;19.10;60.70
20091;DHT22;10205;49.678;6.560;2023-04-23T11:06:00;19.20;60.30
20091;DHT22;10205;49.678;6.560;2023-04-23T11:08:28;19.30;60.50
20091;DHT22;10205;49.678;6.560;2023-04-23T11:10:58;19.30;60.20
20091;DHT22;10205;49.678;6.560;2023-04-23T11:13:28;19.30;61.30
20091;DHT22;10205;49.678;6.560;2023-04-23T11:16:14;19.40;60.50
20091;DHT22;10205;49.678;6.560;2023-04-23T11:18:56;19.50;60.00
20091;DHT22;10205;49.678;6.560;2023-04-23T11:24:39;19.60;59.60
20091;DHT22;10205;49.678;6.560;2023-04-23T11:27:09;19.70;60.50
20091;DHT22;10205;49.678;6.560;2023-04-23T11:29:40;19.70;59.60
20091;DHT22;10205;49.678;6.560;2023-04-23T11:32:08;19.80;59.50
20091;DHT22;10205;49.678;6.560;2023-04-23T11:34:39;19.90;59.50
20091;DHT22;10205;49.678;6.560;2023-04-23T11:37:09;19.90;59.30
20091;DHT22;10205;49.678;6.560;2023-04-23T11:39:37;19.90;59.10
20091;DHT22;10205;49.678;6.560;2023-04-23T11:42:08;20.00;58.80
20091;DHT22;10205;49.678;6.560;2023-04-23T11:44:38;20.10;58.70
20091;DHT22;10205;49.678;6.560;2023-04-23T11:47:07;20.10;58.90
20091;DHT22;10205;49.678;6.560;2023-04-23T11:49:35;20.20;58.60
20091;DHT22;10205;49.678;6.560;2023-04-23T11:52:04;20.20;58.50
20091;DHT22;10205;49.678;6.560;2023-04-23T11:54:31;20.30;58.60
20091;DHT22;10205;49.678;6.560;2023-04-23T11:56:59;20.30;58.20
20091;DHT22;10205;49.678;6.560;2023-04-23T11:59:27;20.40;58.20
20091;DHT22;10205;49.678;6.560;2023-04-23T12:01:57;20.40;58.00
20091;DHT22;10205;49.678;6.560;2023-04-23T12:04:27;20.50;57.70
20091;DHT22;10205;49.678;6.560;2023-04-23T12:06:56;20.60;57.80
20091;DHT22;10205;49.678;6.560;2023-04-23T12:09:25;20.60;57.90
20091;DHT22;10205;49.678;6.560;2023-04-23T12:11:56;20.60;57.50
20091;DHT22;10205;49.678;6.560;2023-04-23T12:14:25;20.70;57.50
20091;DHT22;10205;49.678;6.560;2023-04-23T12:16:56;20.70;57.70
20091;DHT22;10205;49.678;6.560;2023-04-23T12:19:29;20.80;56.70
20091;DHT22;10205;49.678;6.560;2023-04-23T12:21:58;20.80;56.50
20091;DHT22;10205;49.678;6.560;2023-04-23T12:24:28;20.90;56.60
20091;DHT22;10205;49.678;6.560;2023-04-23T12:26:58;20.90;56.40
20091;DHT22;10205;49.678;6.560;2023-04-23T12:29:28;21.00;56.60
20091;DHT22;10205;49.678;6.560;2023-04-23T12:31:58;21.00;56.50
20091;DHT22;10205;49.678;6.560;2023-04-23T12:34:26;21.10;55.70
20091;DHT22;10205;49.678;6.560;2023-04-23T12:36:54;21.20;55.70
20091;DHT22;10205;49.678;6.560;2023-04-23T12:39:24;21.20;55.80
20091;DHT22;10205;49.678;6.560;2023-04-23T12:41:56;21.30;55.30
20091;DHT22;10205;49.678;6.560;2023-04-23T12:44:27;21.30;55.60
20091;DHT22;10205;49.678;6.560;2023-04-23T12:46:56;21.40;55.70
20091;DHT22;10205;49.678;6.560;2023-04-23T12:49:25;21.40;55.20
20091;DHT22;10205;49.678;6.560;2023-04-23T12:51:55;21.50;55.20
20091;DHT22;10205;49.678;6.560;2023-04-23T12:54:25;21.50;54.90
20091;DHT22;10205;49.678;6.560;2023-04-23T12:56:54;21.60;55.10
20091;DHT22;10205;49.678;6.560;2023-04-23T12:59:22;21.70;54.50
20091;DHT22;10205;49.678;6.560;2023-04-23T13:01:49;21.70;54.40
20091;DHT22;10205;49.678;6.560;2023-04-23T13:04:18;21.70;54.30
20091;DHT22;10205;49.678;6.560;2023-04-23T13:06:45;21.80;53.80
20091;DHT22;10205;49.678;6.560;2023-04-23T13:09:13;21.80;53.90
20091;DHT22;10205;49.678;6.560;2023-04-23T13:11:40;21.90;53.50
20091;DHT22;10205;49.678;6.560;2023-04-23T13:14:08;21.90;54.20
20091;DHT22;10205;49.678;6.560;2023-04-23T13:16:35;21.90;53.70
20091;DHT22;10205;49.678;6.560;2023-04-23T13:19:03;22.00;53.70
20091;DHT22;10205;49.678;6.560;2023-04-23T13:21:32;22.00;53.30
20091;DHT22;10205;49.678;6.560;2023-04-23T13:23:59;22.00;52.80
20091;DHT22;10205;49.678;6.560;2023-04-23T13:26:26;22.00;53.20
20091;DHT22;10205;49.678;6.560;2023-04-23T13:28:56;22.10;52.90
20091;DHT22;10205;49.678;6.560;2023-04-23T13:31:24;22.10;52.50
20091;DHT22;10205;49.678;6.560;2023-04-23T13:33:51;22.10;52.80
20091;DHT22;10205;49.678;6.560;2023-04-23T13:36:19;22.10;52.40
20091;DHT22;10205;49.678;6.560;2023-04-23T13:38:48;22.10;52.20
20091;DHT22;10205;49.678;6.560;2023-04-23T13:41:15;22.20;52.10
20091;DHT22;10205;49.678;6.560;2023-04-23T13:43:43;22.20;51.90
20091;DHT22;10205;49.678;6.560;2023-04-23T13:46:10;22.20;52.60
20091;DHT22;10205;49.678;6.560;2023-04-23T13:48:38;22.20;51.90
20091;DHT22;10205;49.678;6.560;2023-04-23T13:51:05;22.20;52.00
20091;DHT22;10205;49.678;6.560;2023-04-23T13:53:33;22.20;52.30
20091;DHT22;10205;49.678;6.560;2023-04-23T13:56:01;22.20;52.30
20091;DHT22;10205;49.678;6.560;2023-04-23T13:58:28;22.20;51.90
20091;DHT22;10205;49.678;6.560;2023-04-23T14:00:56;22.20;52.10
20091;DHT22;10205;49.678;6.560;2023-04-23T14:03:23;22.30;52.00
20091;DHT22;10205;49.678;6.560;2023-04-23T14:05:50;22.30;51.90
20091;DHT22;10205;49.678;6.560;2023-04-23T14:08:17;22.30;51.90
20091;DHT22;10205;49.678;6.560;2023-04-23T14:10:45;22.30;51.00
20091;DHT22;10205;49.678;6.560;2023-04-23T14:13:13;22.30;51.50
20091;DHT22;10205;49.678;6.560;2023-04-23T14:15:40;22.30;51.70
20091;DHT22;10205;49.678;6.560;2023-04-23T14:18:08;22.30;51.90
20091;DHT22;10205;49.678;6.560;2023-04-23T14:20:35;22.30;51.70
20091;DHT22;10205;49.678;6.560;2023-04-23T14:23:24;22.20;52.20
20091;DHT22;10205;49.678;6.560;2023-04-23T14:26:21;22.20;52.30
20091;DHT22;10205;49.678;6.560;2023-04-23T14:28:56;22.10;52.50
20091;DHT22;10205;49.678;6.560;2023-04-23T14:31:27;22.00;52.70
20091;DHT22;10205;49.678;6.560;2023-04-23T14:33:55;22.00;53.70
20091;DHT22;10205;49.678;6.560;2023-04-23T14:36:24;21.90;53.10
20091;DHT22;10205;49.678;6.560;2023-04-23T14:38:51;21.80;53.30
20091;DHT22;10205;49.678;6.560;2023-04-23T14:41:18;21.70;53.50
20091;DHT22;10205;49.678;6.560;2023-04-23T14:43:46;21.60;53.80
20091;DHT22;10205;49.678;6.560;2023-04-23T14:46:14;21.60;54.10
20091;DHT22;10205;49.678;6.560;2023-04-23T14:48:41;21.50;54.30
20091;DHT22;10205;49.678;6.560;2023-04-23T14:51:09;21.40;54.40
20091;DHT22;10205;49.678;6.560;2023-04-23T14:53:36;21.40;54.60
20091;DHT22;10205;49.678;6.560;2023-04-23T14:56:03;21.30;54.70
20091;DHT22;10205;49.678;6.560;2023-04-23T14:58:31;21.30;55.00
20091;DHT22;10205;49.678;6.560;2023-04-23T15:00:58;21.30;55.10
20091;DHT22;10205;49.678;6.560;2023-04-23T15:03:27;21.30;55.30
20091;DHT22;10205;49.678;6.560;2023-04-23T15:05:54;21.30;55.60
20091;DHT22;10205;49.678;6.560;2023-04-23T15:08:21;21.30;55.60
20091;DHT22;10205;49.678;6.560;2023-04-23T15:10:48;21.20;55.40
20091;DHT22;10205;49.678;6.560;2023-04-23T15:13:30;21.20;55.40
20091;DHT22;10205;49.678;6.560;2023-04-23T15:16:07;21.20;55.40
20091;DHT22;10205;49.678;6.560;2023-04-23T15:18:45;21.10;55.40
20091;DHT22;10205;49.678;6.560;2023-04-23T15:21:12;21.10;55.20
20091;DHT22;10205;49.678;6.560;2023-04-23T15:23:40;21.00;55.20
20091;DHT22;10205;49.678;6.560;2023-04-23T15:26:07;20.90;55.30
20091;DHT22;10205;49.678;6.560;2023-04-23T15:28:34;20.90;55.50
20091;DHT22;10205;49.678;6.560;2023-04-23T15:31:03;20.80;55.50
20091;DHT22;10205;49.678;6.560;2023-04-23T15:33:30;20.70;55.50
20091;DHT22;10205;49.678;6.560;2023-04-23T15:35:59;20.70;55.60
20091;DHT22;10205;49.678;6.560;2023-04-23T15:38:27;20.60;55.70
20091;DHT22;10205;49.678;6.560;2023-04-23T15:40:55;20.50;55.60